Weather at Merryfield RNAS Air Base

Public forecast

Using degrees Celsius for public forecast. Weather courtesy of forecast.io.

Closest aviation weather report (METAR) to Merryfield RNAS Air Base

Closest report is RNAS Yeovilton, 11.6 nm (21.4 km) ENE. Retrieved 2021/09/27 21:20 UTC (0 seconds ago):

EGDY 272120Z 22009KT 9999 FEW035 13/08 Q1017 NOSIG RMK BLU BLU

Closest aviation forecast (TAF) to Merryfield RNAS Air Base

Forecast is more than 12 hours old.

Closest forecast is RNAS Yeovilton, 11.6 nm (21.4 km) ENE. Retrieved 2020/10/05 06:30 UTC (12 months ago):

TAF TAF EGDY 051025Z 0506/0518 CNL